Terminal Aerodrome Forecast
Issued by NWS

Home | Current Version | Previous Version | Text Only | Print | Product List | Glossary On
Versions: 1 2 3 4 5 6 7 8 9 10 11 12 13 14 15
783
FTUS42 KTAE 221614 AAB
TAFDHN
TAF AMD
KDHN 221614Z 2216/2312 17008KT P6SM BKN007
      TEMPO 2217/2221 SCT007 BKN030
     FM222100 18010KT 6SM -TSRA BKN025CB
     FM230100 20007KT P6SM OVC010=

USA.gov is the U.S. government's official web portal to all federal, state and local government web resources and services.